createdAt,value
2023-01-26T00:00:26.482Z,0.00
2023-01-26T00:01:26.470Z,0.00
2023-01-26T00:02:26.482Z,0.00
2023-01-26T00:03:26.511Z,0.00
2023-01-26T00:04:26.473Z,0.00
2023-01-26T00:05:26.444Z,0.00
2023-01-26T00:06:26.433Z,0.00
2023-01-26T00:07:26.425Z,0.00
2023-01-26T00:08:26.421Z,0.00
2023-01-26T00:09:26.441Z,0.00
2023-01-26T00:10:26.405Z,0.00
2023-01-26T00:11:26.401Z,0.00
2023-01-26T00:12:26.393Z,0.00
2023-01-26T00:13:26.392Z,0.00
2023-01-26T00:14:26.400Z,0.00
2023-01-26T00:15:26.384Z,0.00
2023-01-26T00:16:26.482Z,0.00
2023-01-26T00:17:26.456Z,0.00
2023-01-26T00:18:26.352Z,0.00
2023-01-26T00:19:26.365Z,0.00
2023-01-26T00:20:27.334Z,0.00
2023-01-26T00:21:26.321Z,0.00
2023-01-26T00:22:26.319Z,0.00
2023-01-26T00:23:26.310Z,0.00
2023-01-26T00:24:26.330Z,0.00
2023-01-26T00:25:26.293Z,0.00
2023-01-26T00:26:26.285Z,0.00
2023-01-26T00:27:26.286Z,0.00
2023-01-26T00:28:26.277Z,0.00
2023-01-26T00:29:26.292Z,0.00
2023-01-26T00:30:26.287Z,0.00
2023-01-26T00:31:26.305Z,0.00
2023-01-26T00:32:26.240Z,0.00
2023-01-26T00:33:26.234Z,0.00
2023-01-26T00:34:26.248Z,0.00
2023-01-26T00:35:26.225Z,0.00
2023-01-26T00:36:26.223Z,0.00
2023-01-26T00:37:26.208Z,0.00
2023-01-26T00:38:26.206Z,0.00
2023-01-26T00:39:26.219Z,0.00
2023-01-26T00:40:26.187Z,0.00
2023-01-26T00:41:26.174Z,0.00
2023-01-26T00:42:26.173Z,0.00
2023-01-26T00:43:26.163Z,0.00
2023-01-26T00:44:26.199Z,0.00
2023-01-26T00:45:26.143Z,0.00
2023-01-26T00:46:26.184Z,0.00
2023-01-26T00:47:26.133Z,0.00
2023-01-26T00:48:26.126Z,0.00
2023-01-26T00:49:26.143Z,0.00
2023-01-26T00:50:26.109Z,0.00
2023-01-26T00:51:26.099Z,0.00
2023-01-26T00:52:26.091Z,0.00
2023-01-26T00:53:26.095Z,0.00
2023-01-26T00:54:26.114Z,0.00
2023-01-26T00:55:26.076Z,0.00
2023-01-26T00:56:26.068Z,0.00
2023-01-26T00:57:26.063Z,0.00
2023-01-26T00:58:26.054Z,0.00
2023-01-26T00:59:26.088Z,0.00
2023-01-26T01:00:26.052Z,0.00
2023-01-26T01:01:26.028Z,0.00
2023-01-26T01:02:26.026Z,0.00
2023-01-26T01:03:26.021Z,0.00
2023-01-26T01:04:26.008Z,0.00
2023-01-26T01:05:26.037Z,0.00
2023-01-26T01:06:26.091Z,0.00
2023-01-26T01:07:25.992Z,0.00
2023-01-26T01:08:25.975Z,0.00
2023-01-26T01:09:25.968Z,0.00
2023-01-26T01:10:25.985Z,0.00
2023-01-26T01:11:25.955Z,0.00
2023-01-26T01:12:25.945Z,0.00
2023-01-26T01:13:25.935Z,0.00
2023-01-26T01:14:25.938Z,0.00
2023-01-26T01:15:25.952Z,0.00
2023-01-26T01:16:25.965Z,0.00
2023-01-26T01:17:25.912Z,0.00
2023-01-26T01:18:25.911Z,0.00
2023-01-26T01:19:25.910Z,0.00
2023-01-26T01:20:25.916Z,0.00
2023-01-26T01:21:25.884Z,0.00
2023-01-26T01:22:25.875Z,0.00
2023-01-26T01:23:25.868Z,0.00
2023-01-26T01:24:25.867Z,0.00
2023-01-26T01:25:25.888Z,0.00
2023-01-26T01:26:25.847Z,0.00
2023-01-26T01:27:25.842Z,0.00
2023-01-26T01:28:25.826Z,0.00
2023-01-26T01:29:25.823Z,0.00
2023-01-26T01:30:25.841Z,0.00
2023-01-26T01:31:25.890Z,0.00
2023-01-26T01:32:25.802Z,0.00
2023-01-26T01:33:25.800Z,0.00
2023-01-26T01:34:25.785Z,0.00
2023-01-26T01:35:25.804Z,0.00
2023-01-26T01:36:25.772Z,0.00
2023-01-26T01:37:25.759Z,0.00
2023-01-26T01:38:25.755Z,0.00
2023-01-26T01:39:25.748Z,0.00
2023-01-26T01:40:25.770Z,0.00
2023-01-26T01:41:25.735Z,0.00
2023-01-26T01:42:25.728Z,0.00
2023-01-26T01:43:25.738Z,0.00
2023-01-26T01:44:25.713Z,0.00
2023-01-26T01:45:25.804Z,0.00
2023-01-26T01:46:25.775Z,0.00
2023-01-26T01:47:25.691Z,0.00
2023-01-26T01:48:25.689Z,0.00
2023-01-26T01:49:25.687Z,0.00
2023-01-26T01:50:25.692Z,0.00
2023-01-26T01:51:25.664Z,0.00
2023-01-26T01:52:25.644Z,0.00
2023-01-26T01:53:25.653Z,0.00
2023-01-26T01:54:25.647Z,0.00
2023-01-26T01:55:25.716Z,0.00
2023-01-26T01:56:25.622Z,0.00
2023-01-26T01:57:25.617Z,0.00
2023-01-26T01:58:25.608Z,0.00
2023-01-26T01:59:25.601Z,0.00
2023-01-26T02:00:25.619Z,0.00
2023-01-26T02:01:25.616Z,0.00
2023-01-26T02:02:25.577Z,0.00
2023-01-26T02:03:25.569Z,0.00
2023-01-26T02:04:25.576Z,0.00
2023-01-26T02:05:25.610Z,0.00
2023-01-26T02:06:25.554Z,0.00
2023-01-26T02:07:25.543Z,0.00
2023-01-26T02:08:25.541Z,0.00
2023-01-26T02:09:25.530Z,0.00
2023-01-26T02:10:25.556Z,0.00
2023-01-26T02:11:25.543Z,0.00
2023-01-26T02:12:25.527Z,0.00
2023-01-26T02:13:25.563Z,0.00
2023-01-26T02:14:25.533Z,0.00
2023-01-26T02:15:25.520Z,0.00
2023-01-26T02:16:25.542Z,0.00
2023-01-26T02:17:25.467Z,0.00
2023-01-26T02:18:25.498Z,0.00
2023-01-26T02:19:25.461Z,0.00
2023-01-26T02:20:25.473Z,0.00
2023-01-26T02:21:25.441Z,0.00
2023-01-26T02:22:25.431Z,0.00
2023-01-26T02:23:25.424Z,0.00
2023-01-26T02:24:25.480Z,0.00
2023-01-26T02:25:25.438Z,0.00
2023-01-26T02:26:25.407Z,0.00
2023-01-26T02:27:25.398Z,0.00
2023-01-26T02:28:25.405Z,0.00
2023-01-26T02:29:25.383Z,0.00
2023-01-26T02:30:25.403Z,0.00
2023-01-26T02:31:25.417Z,0.00
2023-01-26T02:32:25.353Z,0.00
2023-01-26T02:33:25.352Z,0.00
2023-01-26T02:34:25.345Z,0.00
2023-01-26T02:35:25.358Z,0.00
2023-01-26T02:36:25.329Z,0.00
2023-01-26T02:37:25.329Z,0.00
2023-01-26T02:38:25.315Z,0.00
2023-01-26T02:39:26.312Z,0.00
2023-01-26T02:40:25.331Z,0.00
2023-01-26T02:41:25.293Z,0.00
2023-01-26T02:42:25.287Z,0.00
2023-01-26T02:43:25.278Z,0.00
2023-01-26T02:44:25.289Z,0.00
2023-01-26T02:45:25.299Z,0.00
2023-01-26T02:46:25.272Z,0.00
2023-01-26T02:47:25.250Z,0.00
2023-01-26T02:48:25.241Z,0.00
2023-01-26T02:49:25.251Z,0.00
2023-01-26T02:50:25.243Z,0.00
2023-01-26T02:51:25.229Z,0.00
2023-01-26T02:52:25.219Z,0.00
2023-01-26T02:53:25.207Z,0.00
2023-01-26T02:54:25.190Z,0.00
2023-01-26T02:55:25.286Z,0.00
2023-01-26T02:56:25.174Z,0.00
2023-01-26T02:57:25.177Z,0.00
2023-01-26T02:58:25.162Z,0.00
2023-01-26T02:59:25.151Z,0.00
2023-01-26T03:00:25.173Z,0.00
2023-01-26T03:01:25.146Z,0.00
2023-01-26T03:02:25.197Z,0.00
2023-01-26T03:03:25.131Z,0.00
2023-01-26T03:04:25.118Z,0.00
2023-01-26T03:05:25.141Z,0.00
2023-01-26T03:06:25.108Z,0.00
2023-01-26T03:07:25.097Z,0.00
2023-01-26T03:08:25.091Z,0.00
2023-01-26T03:09:25.087Z,0.00
2023-01-26T03:10:25.105Z,0.00
2023-01-26T03:11:25.069Z,0.00
2023-01-26T03:12:25.062Z,0.00
2023-01-26T03:13:25.054Z,0.00
2023-01-26T03:14:25.044Z,0.00
2023-01-26T03:15:25.071Z,0.00
2023-01-26T03:16:25.178Z,0.00
2023-01-26T03:17:25.025Z,0.00
2023-01-26T03:18:25.013Z,0.00
2023-01-26T03:19:25.009Z,0.00
2023-01-26T03:20:24.999Z,0.00
2023-01-26T03:21:25.034Z,0.00
2023-01-26T03:22:24.985Z,0.00
2023-01-26T03:23:24.981Z,0.00
2023-01-26T03:24:24.991Z,0.00
2023-01-26T03:25:24.965Z,0.00
2023-01-26T03:26:24.985Z,0.00
2023-01-26T03:27:24.941Z,0.00
2023-01-26T03:28:25.937Z,0.00
2023-01-26T03:29:24.937Z,0.00
2023-01-26T03:30:24.954Z,0.00
2023-01-26T03:31:24.965Z,0.00
2023-01-26T03:32:24.910Z,0.00
2023-01-26T03:33:24.912Z,0.00
2023-01-26T03:34:24.901Z,0.00
2023-01-26T03:35:24.888Z,0.00
2023-01-26T03:36:24.911Z,0.00
2023-01-26T03:37:24.886Z,0.00
2023-01-26T03:38:24.870Z,0.00
2023-01-26T03:39:24.854Z,0.00
2023-01-26T03:40:24.853Z,0.00
2023-01-26T03:41:24.871Z,0.00
2023-01-26T03:42:24.843Z,0.00
2023-01-26T03:43:24.831Z,0.00
2023-01-26T03:44:24.818Z,0.00
2023-01-26T03:45:24.817Z,0.00
2023-01-26T03:46:24.832Z,0.00
2023-01-26T03:47:24.807Z,0.00
2023-01-26T03:48:24.794Z,0.00
2023-01-26T03:49:24.782Z,0.00
2023-01-26T03:50:24.780Z,0.00
2023-01-26T03:51:24.793Z,0.00
2023-01-26T03:52:24.766Z,0.00
2023-01-26T03:53:24.750Z,0.00
2023-01-26T03:54:24.744Z,0.00
2023-01-26T03:55:24.741Z,0.00
2023-01-26T03:56:24.758Z,0.00
2023-01-26T03:57:24.727Z,0.00
2023-01-26T03:58:24.724Z,0.00
2023-01-26T03:59:24.713Z,0.00
2023-01-26T04:00:24.703Z,0.00
2023-01-26T04:01:24.724Z,0.00
2023-01-26T04:02:24.831Z,0.00
2023-01-26T04:03:24.686Z,0.00
2023-01-26T04:04:24.676Z,0.00
2023-01-26T04:05:24.676Z,0.00
2023-01-26T04:06:24.703Z,0.00
2023-01-26T04:07:24.663Z,0.00
2023-01-26T04:08:24.686Z,0.00
2023-01-26T04:09:24.638Z,0.00
2023-01-26T04:10:24.634Z,0.00
2023-01-26T04:11:24.666Z,0.00
2023-01-26T04:12:24.618Z,0.00
2023-01-26T04:13:24.614Z,0.00
2023-01-26T04:14:24.604Z,0.00
2023-01-26T04:15:24.598Z,0.00
2023-01-26T04:16:24.615Z,0.00
2023-01-26T04:17:24.613Z,0.00
2023-01-26T04:18:24.575Z,0.00
2023-01-26T04:19:24.570Z,0.00
2023-01-26T04:20:24.612Z,0.00
2023-01-26T04:21:24.555Z,0.00
2023-01-26T04:22:24.574Z,0.00
2023-01-26T04:23:24.601Z,0.00
2023-01-26T04:24:24.759Z,0.00
2023-01-26T04:25:24.522Z,0.00
2023-01-26T04:26:24.513Z,0.00
2023-01-26T04:27:24.533Z,0.00
2023-01-26T04:28:24.500Z,0.00
2023-01-26T04:29:24.490Z,0.00
2023-01-26T04:30:24.520Z,0.00
2023-01-26T04:31:24.481Z,0.00
2023-01-26T04:32:24.501Z,0.00
2023-01-26T04:33:24.464Z,0.00
2023-01-26T04:34:24.462Z,0.00
2023-01-26T04:35:24.448Z,0.00
2023-01-26T04:36:24.441Z,0.00
2023-01-26T04:37:24.457Z,0.00
2023-01-26T04:38:24.424Z,0.00
2023-01-26T04:39:24.423Z,0.00
2023-01-26T04:40:24.405Z,0.00
2023-01-26T04:41:24.403Z,0.00
2023-01-26T04:42:24.416Z,0.00
2023-01-26T04:43:24.386Z,0.00
2023-01-26T04:44:24.381Z,0.00
2023-01-26T04:45:24.377Z,0.00
2023-01-26T04:46:24.363Z,0.00
2023-01-26T04:47:24.379Z,0.00
2023-01-26T04:48:24.345Z,0.00
2023-01-26T04:49:24.336Z,0.00
2023-01-26T04:50:24.333Z,0.00
2023-01-26T04:51:24.323Z,0.00
2023-01-26T04:52:24.342Z,0.00
2023-01-26T04:53:24.314Z,0.00
2023-01-26T04:54:24.293Z,0.00
2023-01-26T04:55:24.296Z,0.00
2023-01-26T04:56:24.286Z,0.00
2023-01-26T04:57:24.302Z,0.00
2023-01-26T04:58:24.273Z,0.00
2023-01-26T04:59:24.267Z,0.00
2023-01-26T05:00:24.261Z,0.00
2023-01-26T05:01:24.294Z,0.00
2023-01-26T05:02:24.276Z,0.00
2023-01-26T05:03:24.240Z,0.00
2023-01-26T05:04:24.284Z,0.00
2023-01-26T05:05:24.220Z,0.00
2023-01-26T05:06:24.225Z,0.00
2023-01-26T05:07:24.242Z,0.00
2023-01-26T05:08:24.207Z,0.00
2023-01-26T05:09:24.203Z,0.00
2023-01-26T05:10:24.191Z,0.00
2023-01-26T05:11:24.189Z,0.00
2023-01-26T05:12:24.208Z,0.00
2023-01-26T05:13:24.169Z,0.00
2023-01-26T05:14:24.159Z,0.00
2023-01-26T05:15:24.145Z,0.00
2023-01-26T05:16:24.161Z,0.00
2023-01-26T05:17:24.157Z,0.00
2023-01-26T05:18:24.124Z,0.00
2023-01-26T05:19:24.121Z,0.00
2023-01-26T05:20:24.115Z,0.00
2023-01-26T05:21:24.118Z,0.00
2023-01-26T05:22:24.134Z,0.00
2023-01-26T05:23:24.090Z,0.00
2023-01-26T05:24:24.102Z,0.00
2023-01-26T05:25:24.080Z,0.00
2023-01-26T05:26:24.077Z,0.00
2023-01-26T05:27:24.097Z,0.00
2023-01-26T05:28:24.052Z,0.00
2023-01-26T05:29:24.044Z,0.00
2023-01-26T05:30:24.039Z,0.00
2023-01-26T05:31:24.070Z,0.00
2023-01-26T05:32:24.069Z,0.00
2023-01-26T05:33:24.019Z,0.00
2023-01-26T05:34:24.002Z,0.00
2023-01-26T05:35:25.001Z,0.00
2023-01-26T05:36:24.026Z,0.00
2023-01-26T05:37:24.014Z,0.00
2023-01-26T05:38:23.992Z,0.00
2023-01-26T05:39:23.978Z,0.00
2023-01-26T05:40:23.963Z,0.00
2023-01-26T05:41:23.961Z,0.00
2023-01-26T05:42:23.984Z,0.00
2023-01-26T05:43:23.948Z,0.00
2023-01-26T05:44:23.933Z,0.00
2023-01-26T05:45:23.934Z,0.00
2023-01-26T05:46:23.918Z,0.00
2023-01-26T05:47:23.946Z,0.00
2023-01-26T05:48:23.903Z,0.00
2023-01-26T05:49:23.901Z,0.00
2023-01-26T05:50:23.886Z,0.00
2023-01-26T05:51:23.879Z,0.00
2023-01-26T05:52:23.903Z,0.00
2023-01-26T05:53:23.916Z,0.00
2023-01-26T05:54:23.867Z,0.00
2023-01-26T05:55:23.856Z,0.00
2023-01-26T05:56:23.848Z,0.00
2023-01-26T05:57:23.881Z,0.00
2023-01-26T05:58:23.840Z,0.00
2023-01-26T05:59:23.829Z,0.00
2023-01-26T06:00:23.822Z,0.00
2023-01-26T06:01:23.816Z,0.00
2023-01-26T06:02:23.900Z,0.00
2023-01-26T06:03:23.800Z,0.00
2023-01-26T06:04:23.874Z,0.00
2023-01-26T06:05:23.787Z,0.00
2023-01-26T06:06:23.793Z,0.00
2023-01-26T06:07:23.768Z,0.00
2023-01-26T06:08:23.799Z,0.00
2023-01-26T06:09:26.373Z,0.00
2023-01-26T06:10:23.753Z,0.00
2023-01-26T06:11:23.740Z,0.00
2023-01-26T06:12:23.727Z,0.00
2023-01-26T06:13:23.747Z,0.00
2023-01-26T06:14:23.715Z,0.00
2023-01-26T06:15:23.712Z,0.00
2023-01-26T06:16:23.762Z,0.00
2023-01-26T06:17:23.695Z,0.00
2023-01-26T06:18:23.709Z,0.00
2023-01-26T06:19:23.681Z,0.00
2023-01-26T06:20:23.672Z,0.00
2023-01-26T06:21:23.669Z,0.00
2023-01-26T06:22:23.679Z,0.00
2023-01-26T06:23:23.687Z,0.00
2023-01-26T06:24:23.673Z,0.00
2023-01-26T06:25:23.640Z,0.00
2023-01-26T06:26:23.628Z,0.00
2023-01-26T06:27:23.621Z,0.00
2023-01-26T06:28:23.637Z,0.00
2023-01-26T06:29:23.604Z,0.00
2023-01-26T06:30:23.612Z,0.00
2023-01-26T06:31:23.677Z,0.00
2023-01-26T06:32:23.588Z,0.00
2023-01-26T06:33:23.618Z,0.00
2023-01-26T06:34:23.579Z,0.00
2023-01-26T06:35:23.560Z,0.00
2023-01-26T06:36:23.549Z,0.00
2023-01-26T06:37:23.547Z,0.00
2023-01-26T06:38:23.570Z,0.00
2023-01-26T06:39:23.536Z,0.00
2023-01-26T06:40:23.523Z,4.00
2023-01-26T06:41:23.521Z,4.00
2023-01-26T06:42:23.517Z,0.00
2023-01-26T06:43:23.530Z,0.00
2023-01-26T06:44:23.490Z,4.00
2023-01-26T06:45:23.496Z,0.00
2023-01-26T06:46:23.531Z,4.00
2023-01-26T06:47:23.470Z,4.00
2023-01-26T06:48:23.488Z,4.00
2023-01-26T06:49:23.459Z,8.00
2023-01-26T06:50:23.445Z,8.00
2023-01-26T06:51:23.437Z,8.00
2023-01-26T06:52:23.430Z,8.00
2023-01-26T06:53:23.452Z,8.00
2023-01-26T06:54:23.420Z,12.00
2023-01-26T06:55:23.405Z,12.00
2023-01-26T06:56:23.404Z,12.00
2023-01-26T06:57:23.389Z,12.00
2023-01-26T06:58:23.547Z,16.00
2023-01-26T06:59:23.377Z,16.00
2023-01-26T07:00:23.372Z,20.00
2023-01-26T07:01:23.436Z,20.00
2023-01-26T07:02:23.413Z,24.00
2023-01-26T07:03:23.370Z,24.00
2023-01-26T07:04:23.369Z,24.00
2023-01-26T07:05:23.397Z,32.00
2023-01-26T07:06:23.339Z,36.00
2023-01-26T07:07:23.330Z,32.00
2023-01-26T07:08:23.349Z,36.00
2023-01-26T07:09:23.307Z,40.00
2023-01-26T07:10:23.306Z,40.00
2023-01-26T07:11:23.301Z,44.00
2023-01-26T07:12:23.289Z,48.00
2023-01-26T07:13:23.281Z,52.00
2023-01-26T07:14:23.308Z,56.00
2023-01-26T07:15:23.266Z,60.00
2023-01-26T07:16:23.315Z,68.00
2023-01-26T07:17:23.247Z,68.00
2023-01-26T07:18:23.249Z,72.00
2023-01-26T07:19:23.259Z,76.00
2023-01-26T07:20:23.231Z,80.00
2023-01-26T07:21:23.280Z,84.00
2023-01-26T07:22:23.215Z,88.00
2023-01-26T07:23:23.208Z,96.00
2023-01-26T07:24:23.266Z,100.00
2023-01-26T07:25:23.197Z,104.00
2023-01-26T07:26:23.176Z,108.00
2023-01-26T07:27:23.177Z,112.00
2023-01-26T07:28:23.168Z,120.00
2023-01-26T07:29:23.180Z,128.00
2023-01-26T07:30:23.159Z,132.00
2023-01-26T07:31:23.230Z,140.00
2023-01-26T07:32:23.143Z,148.00
2023-01-26T07:33:23.130Z,156.00
2023-01-26T07:34:23.145Z,164.00
2023-01-26T07:35:23.111Z,172.00
2023-01-26T07:36:23.107Z,184.00
2023-01-26T07:37:23.097Z,192.00
2023-01-26T07:38:23.091Z,208.00
2023-01-26T07:39:23.116Z,224.00
2023-01-26T07:40:23.075Z,240.00
2023-01-26T07:41:23.067Z,252.00
2023-01-26T07:42:23.061Z,260.00
2023-01-26T07:43:23.077Z,272.00
2023-01-26T07:44:23.078Z,280.00
2023-01-26T07:45:23.036Z,292.00
2023-01-26T07:46:23.039Z,308.00
2023-01-26T07:47:23.021Z,316.00
2023-01-26T07:48:23.041Z,332.00
2023-01-26T07:49:23.034Z,348.00
2023-01-26T07:50:23.003Z,356.00
2023-01-26T07:51:22.991Z,364.00
2023-01-26T07:52:22.986Z,364.00
2023-01-26T07:53:23.186Z,376.00
2023-01-26T07:54:22.983Z,376.00
2023-01-26T07:55:23.956Z,388.00
2023-01-26T07:56:22.955Z,400.00
2023-01-26T07:57:22.944Z,412.00
2023-01-26T07:58:22.936Z,424.00
2023-01-26T07:59:22.960Z,440.00
2023-01-26T08:00:22.924Z,456.00
2023-01-26T08:01:23.034Z,476.00
2023-01-26T08:02:22.910Z,492.00
2023-01-26T08:03:22.899Z,512.00
2023-01-26T08:04:22.924Z,532.00
2023-01-26T08:05:22.887Z,544.00
2023-01-26T08:06:22.872Z,552.00
2023-01-26T08:07:22.864Z,552.00
2023-01-26T08:08:22.858Z,564.00
2023-01-26T08:09:22.879Z,576.00
2023-01-26T08:10:22.845Z,584.00
2023-01-26T08:11:22.841Z,584.00
2023-01-26T08:12:22.833Z,588.00
2023-01-26T08:13:34.468Z,600.00
2023-01-26T08:14:24.852Z,624.00
2023-01-26T08:15:22.828Z,648.00
2023-01-26T08:16:22.884Z,676.00
2023-01-26T08:17:22.798Z,720.00
2023-01-26T08:18:22.785Z,768.00
2023-01-26T08:19:22.811Z,816.00
2023-01-26T08:20:22.788Z,868.00
2023-01-26T08:21:22.773Z,908.00
2023-01-26T08:22:22.762Z,952.00
2023-01-26T08:23:22.755Z,1008.00
2023-01-26T08:24:22.791Z,1072.00
2023-01-26T08:25:22.770Z,1132.00
2023-01-26T08:26:22.788Z,1168.00
2023-01-26T08:27:22.721Z,1184.00
2023-01-26T08:28:22.718Z,1180.00
2023-01-26T08:29:22.708Z,1152.00
2023-01-26T08:30:22.721Z,1116.00
2023-01-26T08:31:22.870Z,1060.00
2023-01-26T08:32:22.687Z,1024.00
2023-01-26T08:33:22.678Z,992.00
2023-01-26T08:34:22.667Z,972.00
2023-01-26T08:35:22.685Z,932.00
2023-01-26T08:36:23.077Z,892.00
2023-01-26T08:37:22.648Z,864.00
2023-01-26T08:38:22.642Z,844.00
2023-01-26T08:39:22.628Z,828.00
2023-01-26T08:40:22.652Z,836.00
2023-01-26T08:41:22.617Z,856.00
2023-01-26T08:42:22.962Z,876.00
2023-01-26T08:43:23.601Z,896.00
2023-01-26T08:44:22.591Z,936.00
2023-01-26T08:45:22.614Z,996.00
2023-01-26T08:46:22.584Z,1060.00
2023-01-26T08:47:22.574Z,1108.00
2023-01-26T08:48:22.576Z,1120.00
2023-01-26T08:49:22.568Z,1124.00
2023-01-26T08:50:22.575Z,1152.00
2023-01-26T08:51:22.545Z,1220.00
2023-01-26T08:52:22.553Z,1324.00
2023-01-26T08:53:22.528Z,1448.00
2023-01-26T08:54:22.530Z,1584.00
2023-01-26T08:55:22.541Z,1732.00
2023-01-26T08:56:22.529Z,1888.00
2023-01-26T08:57:22.520Z,2040.00
2023-01-26T08:58:22.502Z,2168.00
2023-01-26T08:59:22.489Z,2264.00
2023-01-26T09:00:22.498Z,2356.00
2023-01-26T09:01:22.491Z,2484.00
2023-01-26T09:02:22.494Z,2600.00
2023-01-26T09:03:22.506Z,2688.00
2023-01-26T09:04:22.452Z,2748.00
2023-01-26T09:05:22.464Z,2760.00
2023-01-26T09:06:22.437Z,2732.00
2023-01-26T09:07:22.431Z,2728.00
2023-01-26T09:08:22.413Z,2732.00
2023-01-26T09:09:22.415Z,2716.00
2023-01-26T09:10:22.432Z,2724.00
2023-01-26T09:11:22.391Z,2764.00
2023-01-26T09:12:22.392Z,2824.00
2023-01-26T09:13:22.383Z,2864.00
2023-01-26T09:14:22.370Z,2872.00
2023-01-26T09:15:22.390Z,2876.00
2023-01-26T09:16:22.393Z,2916.00
2023-01-26T09:17:22.355Z,2968.00
2023-01-26T09:18:22.360Z,3024.00
2023-01-26T09:19:22.323Z,3096.00
2023-01-26T09:20:23.433Z,3204.00
2023-01-26T09:21:22.319Z,3260.00
2023-01-26T09:22:22.314Z,3220.00
2023-01-26T09:23:22.303Z,3168.00
2023-01-26T09:24:22.357Z,3144.00
2023-01-26T09:25:22.323Z,3200.00
2023-01-26T09:26:22.289Z,3252.00
2023-01-26T09:27:22.276Z,3268.00
2023-01-26T09:28:22.269Z,3268.00
2023-01-26T09:29:22.260Z,3268.00
2023-01-26T09:30:22.280Z,3304.00
2023-01-26T09:31:22.330Z,3360.00
2023-01-26T09:32:22.246Z,3416.00
2023-01-26T09:33:22.233Z,3432.00
2023-01-26T09:34:22.220Z,3424.00
2023-01-26T09:35:22.211Z,3424.00
2023-01-26T09:36:22.236Z,3432.00
2023-01-26T09:37:22.199Z,3436.00
2023-01-26T09:38:22.192Z,3448.00
2023-01-26T09:39:22.196Z,3452.00
2023-01-26T09:40:22.253Z,3416.00
2023-01-26T09:41:23.190Z,3372.00
2023-01-26T09:42:22.162Z,3352.00
2023-01-26T09:43:22.160Z,3348.00
2023-01-26T09:44:22.161Z,3352.00
2023-01-26T09:45:22.182Z,3328.00
2023-01-26T09:46:22.206Z,3288.00
2023-01-26T09:47:22.148Z,3272.00
2023-01-26T09:48:25.189Z,3260.00
2023-01-26T09:49:22.119Z,3252.00
2023-01-26T09:50:22.104Z,3232.00
2023-01-26T09:51:22.137Z,3180.00
2023-01-26T09:52:22.092Z,3004.00
2023-01-26T09:53:22.077Z,2736.00
2023-01-26T09:54:22.086Z,2456.00
2023-01-26T09:55:22.075Z,2240.00
2023-01-26T09:56:22.112Z,2104.00
2023-01-26T09:57:22.055Z,2016.00
2023-01-26T09:58:22.049Z,1964.00
2023-01-26T09:59:22.040Z,1920.00
2023-01-26T10:00:22.037Z,1872.00
2023-01-26T10:01:22.133Z,1844.00
2023-01-26T10:02:22.083Z,1824.00
2023-01-26T10:03:22.032Z,1820.00
2023-01-26T10:04:22.006Z,1864.00
2023-01-26T10:05:22.010Z,1964.00
2023-01-26T10:06:22.004Z,2108.00
2023-01-26T10:07:21.993Z,2264.00
2023-01-26T10:08:21.977Z,2392.00
2023-01-26T10:09:21.976Z,2488.00
2023-01-26T10:10:21.955Z,2524.00
2023-01-26T10:11:21.994Z,2528.00
2023-01-26T10:12:21.940Z,2544.00
2023-01-26T10:13:21.933Z,2624.00
2023-01-26T10:14:21.924Z,2752.00
2023-01-26T10:15:21.927Z,2864.00
2023-01-26T10:16:21.936Z,2932.00
2023-01-26T10:17:21.906Z,2968.00
2023-01-26T10:18:21.899Z,2964.00
2023-01-26T10:19:21.913Z,2956.00
2023-01-26T10:20:21.883Z,2940.00
2023-01-26T10:21:21.910Z,2908.00
2023-01-26T10:22:21.873Z,2836.00
2023-01-26T10:23:21.945Z,2776.00
2023-01-26T10:24:21.962Z,2756.00
2023-01-26T10:25:22.910Z,2784.00
2023-01-26T10:26:21.864Z,2820.00
2023-01-26T10:27:21.829Z,2884.00
2023-01-26T10:28:21.818Z,2932.00
2023-01-26T10:29:21.839Z,2948.00
2023-01-26T10:30:21.849Z,2976.00
2023-01-26T10:31:21.891Z,3008.00
2023-01-26T10:32:22.799Z,3036.00
2023-01-26T10:33:21.797Z,3064.00
2023-01-26T10:34:21.779Z,3100.00
2023-01-26T10:35:21.776Z,3148.00
2023-01-26T10:36:21.809Z,3228.00
2023-01-26T10:37:21.772Z,3256.00
2023-01-26T10:38:21.749Z,3268.00
2023-01-26T10:39:21.745Z,3336.00
2023-01-26T10:40:21.805Z,3524.00
2023-01-26T10:41:21.753Z,3712.00
2023-01-26T10:42:21.717Z,3916.00
2023-01-26T10:43:21.717Z,4008.00
2023-01-26T10:44:21.711Z,3932.00
2023-01-26T10:45:21.697Z,3756.00
2023-01-26T10:46:21.738Z,3560.00
2023-01-26T10:47:21.692Z,3444.00
2023-01-26T10:48:21.671Z,3396.00
2023-01-26T10:49:21.664Z,3440.00
2023-01-26T10:50:21.685Z,3544.00
2023-01-26T10:51:21.683Z,3600.00
2023-01-26T10:52:21.727Z,3580.00
2023-01-26T10:53:21.643Z,3592.00
2023-01-26T10:54:21.641Z,3628.00
2023-01-26T10:55:21.614Z,3776.00
2023-01-26T10:56:21.614Z,3880.00
2023-01-26T10:57:21.638Z,3760.00
2023-01-26T10:58:21.596Z,3612.00
2023-01-26T10:59:21.597Z,3580.00
2023-01-26T11:00:21.587Z,3496.00
2023-01-26T11:01:21.622Z,3428.00
2023-01-26T11:02:21.602Z,3412.00
2023-01-26T11:03:21.570Z,3468.00
2023-01-26T11:04:21.564Z,3532.00
2023-01-26T11:05:21.560Z,3492.00
2023-01-26T11:06:21.547Z,3492.00
2023-01-26T11:07:21.559Z,3464.00
2023-01-26T11:08:21.537Z,3396.00
2023-01-26T11:09:21.528Z,3344.00
2023-01-26T11:10:21.512Z,3348.00
2023-01-26T11:11:21.504Z,3192.00
2023-01-26T11:12:21.525Z,3072.00
2023-01-26T11:13:21.497Z,3072.00
2023-01-26T11:14:21.488Z,3144.00
2023-01-26T11:15:21.474Z,3204.00
2023-01-26T11:16:21.558Z,3256.00
2023-01-26T11:17:21.497Z,3312.00
2023-01-26T11:18:21.450Z,3340.00
2023-01-26T11:19:21.453Z,3348.00
2023-01-26T11:20:21.438Z,3384.00
2023-01-26T11:21:21.431Z,3448.00
2023-01-26T11:22:21.465Z,3516.00
2023-01-26T11:23:21.416Z,3608.00
2023-01-26T11:24:21.538Z,3704.00
2023-01-26T11:25:21.409Z,3736.00
2023-01-26T11:26:21.403Z,3740.00
2023-01-26T11:27:21.411Z,3776.00
2023-01-26T11:28:21.380Z,3812.00
2023-01-26T11:29:21.545Z,3868.00
2023-01-26T11:30:21.364Z,3964.00
2023-01-26T11:31:21.386Z,4048.00
2023-01-26T11:32:21.367Z,4072.00
2023-01-26T11:33:21.336Z,4080.00
2023-01-26T11:34:21.334Z,4116.00
2023-01-26T11:35:21.323Z,4100.00
2023-01-26T11:36:21.317Z,4008.00
2023-01-26T11:37:21.329Z,3940.00
2023-01-26T11:38:21.307Z,3880.00
2023-01-26T11:39:21.292Z,3860.00
2023-01-26T11:40:21.280Z,3892.00
2023-01-26T11:41:21.280Z,3852.00
2023-01-26T11:42:21.300Z,3632.00
2023-01-26T11:43:21.266Z,3432.00
2023-01-26T11:44:21.251Z,3348.00
2023-01-26T11:45:21.325Z,3336.00
2023-01-26T11:46:21.247Z,3312.00
2023-01-26T11:47:21.260Z,3300.00
2023-01-26T11:48:21.223Z,3316.00
2023-01-26T11:49:21.221Z,3332.00
2023-01-26T11:50:21.207Z,3376.00
2023-01-26T11:51:21.199Z,3380.00
2023-01-26T11:52:21.216Z,3328.00
2023-01-26T11:53:21.183Z,3332.00
2023-01-26T11:54:21.176Z,3316.00
2023-01-26T11:55:21.166Z,3232.00
2023-01-26T11:56:21.164Z,3168.00
2023-01-26T11:57:21.183Z,3124.00
2023-01-26T11:58:21.152Z,2988.00
2023-01-26T11:59:21.139Z,2820.00
2023-01-26T12:00:30.017Z,2688.00
2023-01-26T12:01:23.125Z,2620.00
2023-01-26T12:02:21.224Z,2608.00
2023-01-26T12:03:21.141Z,2628.00
2023-01-26T12:04:21.132Z,2668.00
2023-01-26T12:05:21.096Z,2696.00
2023-01-26T12:06:21.088Z,2672.00
2023-01-26T12:07:21.102Z,2612.00
2023-01-26T12:08:21.081Z,2516.00
2023-01-26T12:09:21.068Z,2400.00
2023-01-26T12:10:21.066Z,2308.00
2023-01-26T12:11:21.048Z,2260.00
2023-01-26T12:12:21.071Z,2228.00
2023-01-26T12:13:21.047Z,2196.00
2023-01-26T12:14:21.025Z,2168.00
2023-01-26T12:15:21.023Z,2152.00
2023-01-26T12:16:21.023Z,2144.00
2023-01-26T12:17:21.063Z,2160.00
2023-01-26T12:18:21.000Z,2160.00
2023-01-26T12:19:21.033Z,2132.00
2023-01-26T12:20:21.452Z,2088.00
2023-01-26T12:21:21.973Z,2056.00
2023-01-26T12:22:21.013Z,2052.00
2023-01-26T12:23:20.963Z,2072.00
2023-01-26T12:24:48.465Z,2112.00
2023-01-26T12:25:22.949Z,2172.00
2023-01-26T12:26:20.953Z,2204.00
2023-01-26T12:27:20.957Z,2200.00
2023-01-26T12:28:20.924Z,2152.00
2023-01-26T12:29:20.915Z,2104.00
2023-01-26T12:30:20.960Z,2084.00
2023-01-26T12:31:21.074Z,2072.00
2023-01-26T12:32:20.925Z,2072.00
2023-01-26T12:33:20.889Z,2076.00
2023-01-26T12:34:20.876Z,2068.00
2023-01-26T12:35:20.870Z,2048.00
2023-01-26T12:36:20.865Z,2016.00
2023-01-26T12:37:20.885Z,1992.00
2023-01-26T12:38:20.852Z,2000.00
2023-01-26T12:39:20.844Z,2024.00
2023-01-26T12:40:20.836Z,2028.00
2023-01-26T12:41:20.825Z,2036.00
2023-01-26T12:42:20.816Z,2044.00
2023-01-26T12:43:20.834Z,2048.00
2023-01-26T12:44:20.802Z,2040.00
2023-01-26T12:45:20.798Z,2028.00
2023-01-26T12:46:20.802Z,2024.00
2023-01-26T12:47:20.779Z,2012.00